sensor_id;sensor_type;location;lat;lon;timestamp;temperature;humidity
6146;DHT22;3104;50.348;7.620;2022-12-10T00:02:19;0.20;99.90
6146;DHT22;3104;50.348;7.620;2022-12-10T00:04:45;0.20;99.90
6146;DHT22;3104;50.348;7.620;2022-12-10T00:07:10;0.10;99.90
6146;DHT22;3104;50.348;7.620;2022-12-10T00:09:36;0.20;99.90
6146;DHT22;3104;50.348;7.620;2022-12-10T00:12:02;0.10;99.90
6146;DHT22;3104;50.348;7.620;2022-12-10T00:14:27;-0.20;99.90
6146;DHT22;3104;50.348;7.620;2022-12-10T00:16:53;-0.20;99.90
6146;DHT22;3104;50.348;7.620;2022-12-10T00:19:18;-0.20;99.90
6146;DHT22;3104;50.348;7.620;2022-12-10T00:21:44;-0.10;99.90
6146;DHT22;3104;50.348;7.620;2022-12-10T00:24:10;-0.40;99.90
6146;DHT22;3104;50.348;7.620;2022-12-10T00:26:37;-0.50;99.90
6146;DHT22;3104;50.348;7.620;2022-12-10T00:29:05;-0.40;99.90
6146;DHT22;3104;50.348;7.620;2022-12-10T00:31:36;-0.30;99.90
6146;DHT22;3104;50.348;7.620;2022-12-10T00:34:04;-0.20;99.90
6146;DHT22;3104;50.348;7.620;2022-12-10T00:36:48;0.00;99.90
6146;DHT22;3104;50.348;7.620;2022-12-10T00:39:19;0.10;99.90
6146;DHT22;3104;50.348;7.620;2022-12-10T00:41:46;0.00;99.90
6146;DHT22;3104;50.348;7.620;2022-12-10T00:44:11;-0.10;99.90
6146;DHT22;3104;50.348;7.620;2022-12-10T00:46:38;0.10;99.90
6146;DHT22;3104;50.348;7.620;2022-12-10T00:49:04;0.20;99.90
6146;DHT22;3104;50.348;7.620;2022-12-10T00:51:29;0.10;99.90
6146;DHT22;3104;50.348;7.620;2022-12-10T00:53:56;0.00;99.90
6146;DHT22;3104;50.348;7.620;2022-12-10T00:56:25;0.00;99.90
6146;DHT22;3104;50.348;7.620;2022-12-10T00:58:51;-0.10;99.90
6146;DHT22;3104;50.348;7.620;2022-12-10T01:01:27;0.00;99.90
6146;DHT22;3104;50.348;7.620;2022-12-10T01:03:56;-0.10;99.90
6146;DHT22;3104;50.348;7.620;2022-12-10T01:06:24;-0.10;99.90
6146;DHT22;3104;50.348;7.620;2022-12-10T01:08:51;-0.10;99.90
6146;DHT22;3104;50.348;7.620;2022-12-10T01:11:19;0.00;99.90
6146;DHT22;3104;50.348;7.620;2022-12-10T01:13:46;0.10;99.90
6146;DHT22;3104;50.348;7.620;2022-12-10T01:16:14;0.00;99.90
6146;DHT22;3104;50.348;7.620;2022-12-10T01:18:40;0.00;99.90
6146;DHT22;3104;50.348;7.620;2022-12-10T01:21:12;0.00;99.90
6146;DHT22;3104;50.348;7.620;2022-12-10T01:23:39;0.00;99.90
6146;DHT22;3104;50.348;7.620;2022-12-10T01:26:07;0.00;99.90
6146;DHT22;3104;50.348;7.620;2022-12-10T01:28:35;0.10;99.90
6146;DHT22;3104;50.348;7.620;2022-12-10T01:31:17;0.20;99.90
6146;DHT22;3104;50.348;7.620;2022-12-10T01:33:44;0.10;99.90
6146;DHT22;3104;50.348;7.620;2022-12-10T01:36:21;0.20;99.90
6146;DHT22;3104;50.348;7.620;2022-12-10T01:38:47;0.20;99.90
6146;DHT22;3104;50.348;7.620;2022-12-10T01:41:16;0.30;99.90
6146;DHT22;3104;50.348;7.620;2022-12-10T01:46:15;0.20;99.90
6146;DHT22;3104;50.348;7.620;2022-12-10T01:48:41;0.10;99.90
6146;DHT22;3104;50.348;7.620;2022-12-10T01:51:07;0.00;99.90
6146;DHT22;3104;50.348;7.620;2022-12-10T01:53:33;0.00;99.90
6146;DHT22;3104;50.348;7.620;2022-12-10T01:55:59;0.10;99.90
6146;DHT22;3104;50.348;7.620;2022-12-10T01:58:25;0.10;99.90
6146;DHT22;3104;50.348;7.620;2022-12-10T02:03:35;0.20;99.90
6146;DHT22;3104;50.348;7.620;2022-12-10T02:09:43;0.20;99.90
6146;DHT22;3104;50.348;7.620;2022-12-10T02:12:22;0.20;99.90
6146;DHT22;3104;50.348;7.620;2022-12-10T02:17:20;0.00;99.90
6146;DHT22;3104;50.348;7.620;2022-12-10T02:20:52;-0.10;99.90
6146;DHT22;3104;50.348;7.620;2022-12-10T02:22:51;-0.10;99.90
6146;DHT22;3104;50.348;7.620;2022-12-10T02:25:23;-0.10;99.90
6146;DHT22;3104;50.348;7.620;2022-12-10T02:30:23;0.10;99.90
6146;DHT22;3104;50.348;7.620;2022-12-10T02:32:49;0.10;99.90
6146;DHT22;3104;50.348;7.620;2022-12-10T02:35:20;0.20;99.90
6146;DHT22;3104;50.348;7.620;2022-12-10T02:38:15;0.30;99.90
6146;DHT22;3104;50.348;7.620;2022-12-10T02:40:46;0.30;99.90
6146;DHT22;3104;50.348;7.620;2022-12-10T02:43:13;0.30;99.90
6146;DHT22;3104;50.348;7.620;2022-12-10T02:45:40;0.00;99.90
6146;DHT22;3104;50.348;7.620;2022-12-10T02:48:06;0.00;99.90
6146;DHT22;3104;50.348;7.620;2022-12-10T02:50:32;0.00;99.90
6146;DHT22;3104;50.348;7.620;2022-12-10T02:52:58;0.10;99.90
6146;DHT22;3104;50.348;7.620;2022-12-10T02:55:24;0.20;99.90
6146;DHT22;3104;50.348;7.620;2022-12-10T03:00:25;0.10;99.90
6146;DHT22;3104;50.348;7.620;2022-12-10T03:08:59;-0.30;99.90
6146;DHT22;3104;50.348;7.620;2022-12-10T03:11:25;-0.30;99.90
6146;DHT22;3104;50.348;7.620;2022-12-10T03:16:19;-0.40;99.90
6146;DHT22;3104;50.348;7.620;2022-12-10T03:18:49;-0.40;99.90
6146;DHT22;3104;50.348;7.620;2022-12-10T03:21:16;-0.50;99.90
6146;DHT22;3104;50.348;7.620;2022-12-10T03:23:45;-0.40;99.90
6146;DHT22;3104;50.348;7.620;2022-12-10T03:26:11;-0.40;99.90
6146;DHT22;3104;50.348;7.620;2022-12-10T03:28:41;-0.40;99.90
6146;DHT22;3104;50.348;7.620;2022-12-10T03:31:10;-0.30;99.90
6146;DHT22;3104;50.348;7.620;2022-12-10T03:33:38;-0.20;99.90
6146;DHT22;3104;50.348;7.620;2022-12-10T03:36:05;-0.20;99.90
6146;DHT22;3104;50.348;7.620;2022-12-10T03:38:32;-0.20;99.90
6146;DHT22;3104;50.348;7.620;2022-12-10T03:40:57;-0.10;99.90
6146;DHT22;3104;50.348;7.620;2022-12-10T03:43:23;-0.10;99.90
6146;DHT22;3104;50.348;7.620;2022-12-10T03:45:49;-0.10;99.90
6146;DHT22;3104;50.348;7.620;2022-12-10T03:48:14;0.10;99.90
6146;DHT22;3104;50.348;7.620;2022-12-10T03:50:40;0.40;99.90
6146;DHT22;3104;50.348;7.620;2022-12-10T03:53:05;0.30;99.90
6146;DHT22;3104;50.348;7.620;2022-12-10T03:55:31;0.30;99.90
6146;DHT22;3104;50.348;7.620;2022-12-10T03:57:58;0.00;99.90
6146;DHT22;3104;50.348;7.620;2022-12-10T04:00:23;-0.50;99.90
6146;DHT22;3104;50.348;7.620;2022-12-10T04:02:49;-0.70;99.90
6146;DHT22;3104;50.348;7.620;2022-12-10T04:05:15;-0.90;99.90
6146;DHT22;3104;50.348;7.620;2022-12-10T04:07:41;-0.90;99.90
6146;DHT22;3104;50.348;7.620;2022-12-10T04:10:07;-0.80;99.90
6146;DHT22;3104;50.348;7.620;2022-12-10T04:12:32;-0.80;99.90
6146;DHT22;3104;50.348;7.620;2022-12-10T04:14:58;-0.90;99.90
6146;DHT22;3104;50.348;7.620;2022-12-10T04:17:42;-0.90;99.90
6146;DHT22;3104;50.348;7.620;2022-12-10T04:20:08;-0.80;99.90
6146;DHT22;3104;50.348;7.620;2022-12-10T04:22:54;-0.60;99.90
6146;DHT22;3104;50.348;7.620;2022-12-10T04:25:37;-0.50;99.90
6146;DHT22;3104;50.348;7.620;2022-12-10T04:28:22;-0.40;99.90
6146;DHT22;3104;50.348;7.620;2022-12-10T04:30:47;-0.50;99.90
6146;DHT22;3104;50.348;7.620;2022-12-10T04:33:13;-0.60;99.90
6146;DHT22;3104;50.348;7.620;2022-12-10T04:35:38;-0.70;99.90
6146;DHT22;3104;50.348;7.620;2022-12-10T04:38:04;-0.80;99.90
6146;DHT22;3104;50.348;7.620;2022-12-10T04:40:29;-0.60;99.90
6146;DHT22;3104;50.348;7.620;2022-12-10T04:42:55;0.00;99.90
6146;DHT22;3104;50.348;7.620;2022-12-10T04:45:20;0.90;99.90
6146;DHT22;3104;50.348;7.620;2022-12-10T04:47:46;0.70;99.90
6146;DHT22;3104;50.348;7.620;2022-12-10T04:50:11;0.50;99.90
6146;DHT22;3104;50.348;7.620;2022-12-10T04:52:37;-0.10;99.90
6146;DHT22;3104;50.348;7.620;2022-12-10T04:55:03;-0.20;99.90
6146;DHT22;3104;50.348;7.620;2022-12-10T04:57:28;-0.30;99.90
6146;DHT22;3104;50.348;7.620;2022-12-10T04:59:54;-0.30;99.90
6146;DHT22;3104;50.348;7.620;2022-12-10T05:02:20;-0.40;99.90
6146;DHT22;3104;50.348;7.620;2022-12-10T05:04:45;-0.40;99.90
6146;DHT22;3104;50.348;7.620;2022-12-10T05:07:13;-0.30;99.90
6146;DHT22;3104;50.348;7.620;2022-12-10T05:09:38;-0.50;99.90
6146;DHT22;3104;50.348;7.620;2022-12-10T05:12:04;-0.60;99.90
6146;DHT22;3104;50.348;7.620;2022-12-10T05:14:30;-0.60;99.90
6146;DHT22;3104;50.348;7.620;2022-12-10T05:16:55;-0.60;99.90
6146;DHT22;3104;50.348;7.620;2022-12-10T05:19:21;-0.70;99.90
6146;DHT22;3104;50.348;7.620;2022-12-10T05:21:48;-0.50;99.90
6146;DHT22;3104;50.348;7.620;2022-12-10T05:24:33;-0.60;99.90
6146;DHT22;3104;50.348;7.620;2022-12-10T05:26:58;-0.60;99.90
6146;DHT22;3104;50.348;7.620;2022-12-10T05:29:24;-0.70;99.90
6146;DHT22;3104;50.348;7.620;2022-12-10T05:31:49;-0.60;99.90
6146;DHT22;3104;50.348;7.620;2022-12-10T05:34:15;-0.70;99.90
6146;DHT22;3104;50.348;7.620;2022-12-10T05:36:41;-0.70;99.90
6146;DHT22;3104;50.348;7.620;2022-12-10T05:39:07;-0.80;99.90
6146;DHT22;3104;50.348;7.620;2022-12-10T05:41:35;-0.80;99.90
6146;DHT22;3104;50.348;7.620;2022-12-10T05:44:02;-0.70;99.90
6146;DHT22;3104;50.348;7.620;2022-12-10T05:46:30;-0.70;99.90
6146;DHT22;3104;50.348;7.620;2022-12-10T05:48:56;-0.70;99.90
6146;DHT22;3104;50.348;7.620;2022-12-10T05:51:27;-0.70;99.90
6146;DHT22;3104;50.348;7.620;2022-12-10T05:53:53;-0.50;99.90
6146;DHT22;3104;50.348;7.620;2022-12-10T05:56:21;-0.50;99.90
6146;DHT22;3104;50.348;7.620;2022-12-10T05:58:49;-0.40;99.90
6146;DHT22;3104;50.348;7.620;2022-12-10T06:01:23;-0.30;99.90
6146;DHT22;3104;50.348;7.620;2022-12-10T06:03:49;0.00;99.90
6146;DHT22;3104;50.348;7.620;2022-12-10T06:06:21;-0.10;99.90
6146;DHT22;3104;50.348;7.620;2022-12-10T06:08:47;-0.30;99.90
6146;DHT22;3104;50.348;7.620;2022-12-10T06:11:13;-0.30;99.90
6146;DHT22;3104;50.348;7.620;2022-12-10T06:13:38;-0.50;99.90
6146;DHT22;3104;50.348;7.620;2022-12-10T06:16:09;-0.60;99.90
6146;DHT22;3104;50.348;7.620;2022-12-10T06:18:35;-0.60;99.90
6146;DHT22;3104;50.348;7.620;2022-12-10T06:21:06;-0.70;99.90
6146;DHT22;3104;50.348;7.620;2022-12-10T06:23:34;-0.70;99.90
6146;DHT22;3104;50.348;7.620;2022-12-10T06:26:07;-0.70;99.90
6146;DHT22;3104;50.348;7.620;2022-12-10T06:28:33;-0.80;99.90
6146;DHT22;3104;50.348;7.620;2022-12-10T06:30:59;-0.40;99.90
6146;DHT22;3104;50.348;7.620;2022-12-10T06:33:26;0.40;99.90
6146;DHT22;3104;50.348;7.620;2022-12-10T06:35:51;1.30;99.90
6146;DHT22;3104;50.348;7.620;2022-12-10T06:38:17;1.30;99.90
6146;DHT22;3104;50.348;7.620;2022-12-10T06:40:42;0.90;99.90
6146;DHT22;3104;50.348;7.620;2022-12-10T06:43:08;0.30;99.90
6146;DHT22;3104;50.348;7.620;2022-12-10T06:45:38;0.10;99.90
6146;DHT22;3104;50.348;7.620;2022-12-10T06:48:04;0.10;99.90
6146;DHT22;3104;50.348;7.620;2022-12-10T06:50:29;0.40;99.90
6146;DHT22;3104;50.348;7.620;2022-12-10T06:52:55;0.40;99.90
6146;DHT22;3104;50.348;7.620;2022-12-10T06:55:21;0.60;99.90
6146;DHT22;3104;50.348;7.620;2022-12-10T06:57:48;0.60;99.90
6146;DHT22;3104;50.348;7.620;2022-12-10T07:00:15;0.90;99.90
6146;DHT22;3104;50.348;7.620;2022-12-10T07:02:41;0.60;99.90
6146;DHT22;3104;50.348;7.620;2022-12-10T07:05:07;0.80;99.90
6146;DHT22;3104;50.348;7.620;2022-12-10T07:07:32;0.60;99.90
6146;DHT22;3104;50.348;7.620;2022-12-10T07:09:58;0.10;99.90
6146;DHT22;3104;50.348;7.620;2022-12-10T07:12:23;0.10;99.90
6146;DHT22;3104;50.348;7.620;2022-12-10T07:14:49;0.30;99.90
6146;DHT22;3104;50.348;7.620;2022-12-10T07:17:14;0.10;99.90
6146;DHT22;3104;50.348;7.620;2022-12-10T07:19:40;-0.10;99.90
6146;DHT22;3104;50.348;7.620;2022-12-10T07:22:05;-0.20;99.90
6146;DHT22;3104;50.348;7.620;2022-12-10T07:24:31;-0.50;99.90
6146;DHT22;3104;50.348;7.620;2022-12-10T07:26:56;-0.50;99.90
6146;DHT22;3104;50.348;7.620;2022-12-10T07:29:22;-0.30;99.90
6146;DHT22;3104;50.348;7.620;2022-12-10T07:31:48;-0.40;99.90
6146;DHT22;3104;50.348;7.620;2022-12-10T07:34:15;-0.40;99.90
6146;DHT22;3104;50.348;7.620;2022-12-10T07:36:41;-0.30;99.90
6146;DHT22;3104;50.348;7.620;2022-12-10T07:39:08;-0.10;99.90
6146;DHT22;3104;50.348;7.620;2022-12-10T07:41:34;-0.20;99.90
6146;DHT22;3104;50.348;7.620;2022-12-10T07:44:01;-0.10;99.90
6146;DHT22;3104;50.348;7.620;2022-12-10T07:46:29;-0.10;99.90
6146;DHT22;3104;50.348;7.620;2022-12-10T07:48:55;0.00;99.90
6146;DHT22;3104;50.348;7.620;2022-12-10T07:51:22;-0.20;99.90
6146;DHT22;3104;50.348;7.620;2022-12-10T07:53:50;-0.40;99.90
6146;DHT22;3104;50.348;7.620;2022-12-10T07:56:16;-0.50;99.90
6146;DHT22;3104;50.348;7.620;2022-12-10T07:58:43;-0.10;99.90
6146;DHT22;3104;50.348;7.620;2022-12-10T08:01:12;0.30;99.90
6146;DHT22;3104;50.348;7.620;2022-12-10T08:03:37;0.50;99.90
6146;DHT22;3104;50.348;7.620;2022-12-10T08:06:05;0.70;99.90
6146;DHT22;3104;50.348;7.620;2022-12-10T08:08:33;1.40;99.90
6146;DHT22;3104;50.348;7.620;2022-12-10T08:10:59;1.20;99.90
6146;DHT22;3104;50.348;7.620;2022-12-10T08:13:25;0.90;99.90
6146;DHT22;3104;50.348;7.620;2022-12-10T08:15:51;1.20;99.90
6146;DHT22;3104;50.348;7.620;2022-12-10T08:18:16;1.10;99.90
6146;DHT22;3104;50.348;7.620;2022-12-10T08:20:42;0.80;99.90
6146;DHT22;3104;50.348;7.620;2022-12-10T08:23:07;0.90;99.90
6146;DHT22;3104;50.348;7.620;2022-12-10T08:25:33;1.00;99.90
6146;DHT22;3104;50.348;7.620;2022-12-10T08:28:00;0.70;99.90
6146;DHT22;3104;50.348;7.620;2022-12-10T08:30:28;0.20;99.90
6146;DHT22;3104;50.348;7.620;2022-12-10T08:32:54;0.00;99.90
6146;DHT22;3104;50.348;7.620;2022-12-10T08:35:19;-0.10;99.90
6146;DHT22;3104;50.348;7.620;2022-12-10T08:37:45;-0.30;99.90
6146;DHT22;3104;50.348;7.620;2022-12-10T08:40:11;-0.40;99.90
6146;DHT22;3104;50.348;7.620;2022-12-10T08:42:36;-0.40;99.90
6146;DHT22;3104;50.348;7.620;2022-12-10T08:45:02;-0.40;99.90
6146;DHT22;3104;50.348;7.620;2022-12-10T08:47:28;-0.30;99.90
6146;DHT22;3104;50.348;7.620;2022-12-10T08:49:53;0.00;99.90
6146;DHT22;3104;50.348;7.620;2022-12-10T08:52:19;-0.10;99.90
6146;DHT22;3104;50.348;7.620;2022-12-10T08:54:44;0.00;99.90
6146;DHT22;3104;50.348;7.620;2022-12-10T08:57:10;0.20;99.90
6146;DHT22;3104;50.348;7.620;2022-12-10T08:59:35;1.00;99.90
6146;DHT22;3104;50.348;7.620;2022-12-10T09:02:01;1.60;99.90
6146;DHT22;3104;50.348;7.620;2022-12-10T09:04:26;2.10;99.90
6146;DHT22;3104;50.348;7.620;2022-12-10T09:06:52;3.10;99.90
6146;DHT22;3104;50.348;7.620;2022-12-10T09:09:18;2.80;99.90
6146;DHT22;3104;50.348;7.620;2022-12-10T09:11:43;2.40;99.90
6146;DHT22;3104;50.348;7.620;2022-12-10T09:14:11;2.90;99.90
6146;DHT22;3104;50.348;7.620;2022-12-10T09:16:37;3.10;99.90
6146;DHT22;3104;50.348;7.620;2022-12-10T09:19:05;2.70;99.90
6146;DHT22;3104;50.348;7.620;2022-12-10T09:21:31;2.40;99.90
6146;DHT22;3104;50.348;7.620;2022-12-10T09:23:57;2.50;99.90
6146;DHT22;3104;50.348;7.620;2022-12-10T09:26:23;2.50;99.90
6146;DHT22;3104;50.348;7.620;2022-12-10T09:28:49;2.60;99.90
6146;DHT22;3104;50.348;7.620;2022-12-10T09:31:16;3.50;99.90
6146;DHT22;3104;50.348;7.620;2022-12-10T09:33:42;3.40;99.90
6146;DHT22;3104;50.348;7.620;2022-12-10T09:36:10;3.90;99.90
6146;DHT22;3104;50.348;7.620;2022-12-10T09:38:38;3.30;99.90
6146;DHT22;3104;50.348;7.620;2022-12-10T09:44:17;3.00;99.90
6146;DHT22;3104;50.348;7.620;2022-12-10T09:47:01;3.30;99.90
6146;DHT22;3104;50.348;7.620;2022-12-10T09:50:03;2.80;99.90
6146;DHT22;3104;50.348;7.620;2022-12-10T09:52:40;2.70;99.90
6146;DHT22;3104;50.348;7.620;2022-12-10T09:55:20;3.10;99.90
6146;DHT22;3104;50.348;7.620;2022-12-10T09:57:51;3.60;99.90
6146;DHT22;3104;50.348;7.620;2022-12-10T10:00:19;3.80;99.90
6146;DHT22;3104;50.348;7.620;2022-12-10T10:02:45;3.50;99.90
6146;DHT22;3104;50.348;7.620;2022-12-10T10:05:21;3.00;99.90
6146;DHT22;3104;50.348;7.620;2022-12-10T10:07:53;3.20;99.90
6146;DHT22;3104;50.348;7.620;2022-12-10T10:10:27;3.50;99.90
6146;DHT22;3104;50.348;7.620;2022-12-10T10:15:37;2.40;99.90
6146;DHT22;3104;50.348;7.620;2022-12-10T10:18:38;2.00;99.90
6146;DHT22;3104;50.348;7.620;2022-12-10T10:21:10;2.10;99.90
6146;DHT22;3104;50.348;7.620;2022-12-10T10:23:37;2.20;99.90
6146;DHT22;3104;50.348;7.620;2022-12-10T10:26:02;2.10;99.90
6146;DHT22;3104;50.348;7.620;2022-12-10T10:28:28;1.90;99.90
6146;DHT22;3104;50.348;7.620;2022-12-10T10:30:54;1.70;99.90
6146;DHT22;3104;50.348;7.620;2022-12-10T10:33:19;1.60;99.90
6146;DHT22;3104;50.348;7.620;2022-12-10T10:35:53;1.70;99.90
6146;DHT22;3104;50.348;7.620;2022-12-10T10:38:27;1.70;99.90
6146;DHT22;3104;50.348;7.620;2022-12-10T10:41:01;1.60;99.90
6146;DHT22;3104;50.348;7.620;2022-12-10T10:43:41;1.50;99.90
6146;DHT22;3104;50.348;7.620;2022-12-10T10:46:13;1.50;99.90
6146;DHT22;3104;50.348;7.620;2022-12-10T10:48:39;1.30;99.90
6146;DHT22;3104;50.348;7.620;2022-12-10T10:53:52;1.30;99.90
6146;DHT22;3104;50.348;7.620;2022-12-10T10:56:27;1.20;99.90
6146;DHT22;3104;50.348;7.620;2022-12-10T11:01:53;1.20;99.90
6146;DHT22;3104;50.348;7.620;2022-12-10T11:04:37;1.30;99.90
6146;DHT22;3104;50.348;7.620;2022-12-10T11:07:05;1.40;99.90
6146;DHT22;3104;50.348;7.620;2022-12-10T11:09:33;1.40;99.90
6146;DHT22;3104;50.348;7.620;2022-12-10T11:12:03;1.20;99.90
6146;DHT22;3104;50.348;7.620;2022-12-10T11:14:38;1.20;99.90
6146;DHT22;3104;50.348;7.620;2022-12-10T11:19:42;1.40;99.90
6146;DHT22;3104;50.348;7.620;2022-12-10T11:22:21;1.40;99.90
6146;DHT22;3104;50.348;7.620;2022-12-10T11:24:48;1.40;99.90
6146;DHT22;3104;50.348;7.620;2022-12-10T11:30:00;1.50;99.90
6146;DHT22;3104;50.348;7.620;2022-12-10T11:35:30;1.30;99.90
6146;DHT22;3104;50.348;7.620;2022-12-10T11:38:27;1.30;99.90
6146;DHT22;3104;50.348;7.620;2022-12-10T11:44:16;1.50;99.90
6146;DHT22;3104;50.348;7.620;2022-12-10T11:47:14;1.40;99.90
6146;DHT22;3104;50.348;7.620;2022-12-10T11:52:55;1.40;99.90
6146;DHT22;3104;50.348;7.620;2022-12-10T11:58:43;1.20;99.90
6146;DHT22;3104;50.348;7.620;2022-12-10T12:03:38;1.20;99.90
6146;DHT22;3104;50.348;7.620;2022-12-10T12:08:55;1.20;99.90
6146;DHT22;3104;50.348;7.620;2022-12-10T12:14:14;1.20;99.90
6146;DHT22;3104;50.348;7.620;2022-12-10T12:17:10;1.30;99.90
6146;DHT22;3104;50.348;7.620;2022-12-10T12:22:37;1.50;99.90
6146;DHT22;3104;50.348;7.620;2022-12-10T12:25:17;1.20;99.90
6146;DHT22;3104;50.348;7.620;2022-12-10T12:27:50;1.10;99.90
6146;DHT22;3104;50.348;7.620;2022-12-10T12:30:20;1.10;99.90
6146;DHT22;3104;50.348;7.620;2022-12-10T12:38:31;1.20;99.90
6146;DHT22;3104;50.348;7.620;2022-12-10T12:41:11;1.00;99.90
6146;DHT22;3104;50.348;7.620;2022-12-10T12:43:52;0.90;99.90
6146;DHT22;3104;50.348;7.620;2022-12-10T12:46:29;0.70;99.90
6146;DHT22;3104;50.348;7.620;2022-12-10T12:49:02;0.80;99.90
6146;DHT22;3104;50.348;7.620;2022-12-10T12:55:02;0.80;99.90
6146;DHT22;3104;50.348;7.620;2022-12-10T12:57:41;0.80;99.90
6146;DHT22;3104;50.348;7.620;2022-12-10T13:00:15;0.70;99.90
6146;DHT22;3104;50.348;7.620;2022-12-10T13:05:45;1.10;99.90
6146;DHT22;3104;50.348;7.620;2022-12-10T13:15:50;0.70;99.90
6146;DHT22;3104;50.348;7.620;2022-12-10T13:20:50;0.90;99.90
6146;DHT22;3104;50.348;7.620;2022-12-10T13:28:28;1.60;99.90
6146;DHT22;3104;50.348;7.620;2022-12-10T13:47:32;1.00;99.90
6146;DHT22;3104;50.348;7.620;2022-12-10T13:52:57;1.00;99.90
6146;DHT22;3104;50.348;7.620;2022-12-10T14:01:13;0.80;99.90
6146;DHT22;3104;50.348;7.620;2022-12-10T14:06:33;0.80;99.90
6146;DHT22;3104;50.348;7.620;2022-12-10T14:09:25;0.60;99.90
6146;DHT22;3104;50.348;7.620;2022-12-10T14:12:06;0.60;99.90
6146;DHT22;3104;50.348;7.620;2022-12-10T14:14:39;0.60;99.90
6146;DHT22;3104;50.348;7.620;2022-12-10T14:17:20;0.60;99.90
6146;DHT22;3104;50.348;7.620;2022-12-10T14:19:49;0.60;99.90
6146;DHT22;3104;50.348;7.620;2022-12-10T14:22:39;0.90;99.90
6146;DHT22;3104;50.348;7.620;2022-12-10T14:25:09;0.80;99.90
6146;DHT22;3104;50.348;7.620;2022-12-10T14:27:36;1.10;99.90
6146;DHT22;3104;50.348;7.620;2022-12-10T14:30:19;1.00;99.90
6146;DHT22;3104;50.348;7.620;2022-12-10T14:32:46;1.00;99.90
6146;DHT22;3104;50.348;7.620;2022-12-10T14:35:23;0.90;99.90
6146;DHT22;3104;50.348;7.620;2022-12-10T14:37:51;0.80;99.90
6146;DHT22;3104;50.348;7.620;2022-12-10T14:40:32;1.10;99.90
6146;DHT22;3104;50.348;7.620;2022-12-10T14:43:22;0.90;99.90
6146;DHT22;3104;50.348;7.620;2022-12-10T14:45:53;0.70;99.90
6146;DHT22;3104;50.348;7.620;2022-12-10T14:48:22;0.80;99.90
6146;DHT22;3104;50.348;7.620;2022-12-10T14:50:48;0.90;99.90
6146;DHT22;3104;50.348;7.620;2022-12-10T14:53:16;1.00;99.90
6146;DHT22;3104;50.348;7.620;2022-12-10T14:55:43;0.80;99.90
6146;DHT22;3104;50.348;7.620;2022-12-10T14:58:30;0.70;99.90
6146;DHT22;3104;50.348;7.620;2022-12-10T15:00:56;0.60;99.90
6146;DHT22;3104;50.348;7.620;2022-12-10T15:03:27;0.70;99.90
6146;DHT22;3104;50.348;7.620;2022-12-10T15:05:56;0.70;99.90
6146;DHT22;3104;50.348;7.620;2022-12-10T15:08:24;0.70;99.90
6146;DHT22;3104;50.348;7.620;2022-12-10T15:10:54;0.90;99.90
6146;DHT22;3104;50.348;7.620;2022-12-10T15:13:37;0.70;99.90
6146;DHT22;3104;50.348;7.620;2022-12-10T15:16:04;0.70;99.90
6146;DHT22;3104;50.348;7.620;2022-12-10T15:18:37;1.10;99.90
6146;DHT22;3104;50.348;7.620;2022-12-10T15:21:11;1.00;99.90
6146;DHT22;3104;50.348;7.620;2022-12-10T15:23:40;0.90;99.90
6146;DHT22;3104;50.348;7.620;2022-12-10T15:26:24;0.70;99.90
6146;DHT22;3104;50.348;7.620;2022-12-10T15:28:51;0.60;99.90
6146;DHT22;3104;50.348;7.620;2022-12-10T15:34:01;0.60;99.90
6146;DHT22;3104;50.348;7.620;2022-12-10T15:36:39;0.80;99.90
6146;DHT22;3104;50.348;7.620;2022-12-10T15:41:57;0.70;99.90
6146;DHT22;3104;50.348;7.620;2022-12-10T15:47:02;0.60;99.90
6146;DHT22;3104;50.348;7.620;2022-12-10T15:49:29;0.60;99.90
6146;DHT22;3104;50.348;7.620;2022-12-10T15:51:56;0.50;99.90
6146;DHT22;3104;50.348;7.620;2022-12-10T15:54:28;0.60;99.90
6146;DHT22;3104;50.348;7.620;2022-12-10T15:56:55;0.60;99.90
6146;DHT22;3104;50.348;7.620;2022-12-10T15:59:21;0.70;99.90
6146;DHT22;3104;50.348;7.620;2022-12-10T16:01:46;0.70;99.90
6146;DHT22;3104;50.348;7.620;2022-12-10T16:04:12;0.60;99.90
6146;DHT22;3104;50.348;7.620;2022-12-10T16:06:39;0.40;99.90
6146;DHT22;3104;50.348;7.620;2022-12-10T16:09:04;0.30;99.90
6146;DHT22;3104;50.348;7.620;2022-12-10T16:11:31;0.50;99.90
6146;DHT22;3104;50.348;7.620;2022-12-10T16:13:57;0.50;99.90
6146;DHT22;3104;50.348;7.620;2022-12-10T16:16:23;0.30;99.90
6146;DHT22;3104;50.348;7.620;2022-12-10T16:18:50;0.30;99.90
6146;DHT22;3104;50.348;7.620;2022-12-10T16:21:15;0.40;99.90
6146;DHT22;3104;50.348;7.620;2022-12-10T16:23:41;0.50;99.90
6146;DHT22;3104;50.348;7.620;2022-12-10T16:26:21;0.50;99.90
6146;DHT22;3104;50.348;7.620;2022-12-10T16:28:48;0.60;99.90
6146;DHT22;3104;50.348;7.620;2022-12-10T16:31:16;0.60;99.90
6146;DHT22;3104;50.348;7.620;2022-12-10T16:33:43;0.70;99.90
6146;DHT22;3104;50.348;7.620;2022-12-10T16:36:10;0.70;99.90
6146;DHT22;3104;50.348;7.620;2022-12-10T16:38:36;0.50;99.90
6146;DHT22;3104;50.348;7.620;2022-12-10T16:41:03;0.50;99.90
6146;DHT22;3104;50.348;7.620;2022-12-10T16:43:32;0.50;99.90
6146;DHT22;3104;50.348;7.620;2022-12-10T16:45:58;0.40;99.90
6146;DHT22;3104;50.348;7.620;2022-12-10T16:48:24;0.50;99.90
6146;DHT22;3104;50.348;7.620;2022-12-10T16:50:51;0.50;99.90
6146;DHT22;3104;50.348;7.620;2022-12-10T16:53:25;0.40;99.90
6146;DHT22;3104;50.348;7.620;2022-12-10T16:55:52;0.50;99.90
6146;DHT22;3104;50.348;7.620;2022-12-10T16:58:18;0.40;99.90
6146;DHT22;3104;50.348;7.620;2022-12-10T17:00:45;0.20;99.90
6146;DHT22;3104;50.348;7.620;2022-12-10T17:03:13;0.00;99.90
6146;DHT22;3104;50.348;7.620;2022-12-10T17:05:58;0.00;99.90
6146;DHT22;3104;50.348;7.620;2022-12-10T17:08:25;-0.30;99.90
6146;DHT22;3104;50.348;7.620;2022-12-10T17:10:51;-0.30;99.90
6146;DHT22;3104;50.348;7.620;2022-12-10T17:13:36;-0.30;99.90
6146;DHT22;3104;50.348;7.620;2022-12-10T17:16:03;-0.20;99.90
6146;DHT22;3104;50.348;7.620;2022-12-10T17:18:30;-0.30;99.90
6146;DHT22;3104;50.348;7.620;2022-12-10T17:20:57;-0.50;99.90
6146;DHT22;3104;50.348;7.620;2022-12-10T17:23:22;-0.50;99.90
6146;DHT22;3104;50.348;7.620;2022-12-10T17:25:49;-0.50;99.90
6146;DHT22;3104;50.348;7.620;2022-12-10T17:28:17;-0.60;99.90
6146;DHT22;3104;50.348;7.620;2022-12-10T17:30:43;-0.60;99.90
6146;DHT22;3104;50.348;7.620;2022-12-10T17:33:14;-0.50;99.90
6146;DHT22;3104;50.348;7.620;2022-12-10T17:35:44;-0.30;99.90
6146;DHT22;3104;50.348;7.620;2022-12-10T17:38:15;-0.40;99.90
6146;DHT22;3104;50.348;7.620;2022-12-10T17:40:41;-0.40;99.90
6146;DHT22;3104;50.348;7.620;2022-12-10T17:43:07;-0.40;99.90
6146;DHT22;3104;50.348;7.620;2022-12-10T17:45:33;-0.50;99.90
6146;DHT22;3104;50.348;7.620;2022-12-10T17:47:58;-0.50;99.90
6146;DHT22;3104;50.348;7.620;2022-12-10T17:50:30;-0.70;99.90
6146;DHT22;3104;50.348;7.620;2022-12-10T17:52:58;0.00;99.90
6146;DHT22;3104;50.348;7.620;2022-12-10T17:55:25;0.00;99.90
6146;DHT22;3104;50.348;7.620;2022-12-10T17:57:51;-0.20;99.90
6146;DHT22;3104;50.348;7.620;2022-12-10T18:00:20;0.20;99.90
6146;DHT22;3104;50.348;7.620;2022-12-10T18:02:46;0.20;99.90
6146;DHT22;3104;50.348;7.620;2022-12-10T18:05:11;-0.10;99.90
6146;DHT22;3104;50.348;7.620;2022-12-10T18:07:37;-0.10;99.90
6146;DHT22;3104;50.348;7.620;2022-12-10T18:10:05;-0.10;99.90
6146;DHT22;3104;50.348;7.620;2022-12-10T18:12:32;0.10;99.90
6146;DHT22;3104;50.348;7.620;2022-12-10T18:14:57;-0.30;99.90
6146;DHT22;3104;50.348;7.620;2022-12-10T18:17:23;-0.50;99.90
6146;DHT22;3104;50.348;7.620;2022-12-10T18:19:49;-0.50;99.90
6146;DHT22;3104;50.348;7.620;2022-12-10T18:22:15;-0.80;99.90
6146;DHT22;3104;50.348;7.620;2022-12-10T18:24:41;-0.60;99.90
6146;DHT22;3104;50.348;7.620;2022-12-10T18:27:10;0.00;99.90
6146;DHT22;3104;50.348;7.620;2022-12-10T18:29:36;-0.20;99.90
6146;DHT22;3104;50.348;7.620;2022-12-10T18:32:02;-0.30;99.90
6146;DHT22;3104;50.348;7.620;2022-12-10T18:34:28;-0.30;99.90